createdAt,value
2023-11-16T00:00:35.240Z,2.47
2023-11-16T00:05:37.397Z,2.18
2023-11-16T00:10:39.393Z,2.16
2023-11-16T00:15:41.622Z,2.08
2023-11-16T00:20:43.831Z,2.00
2023-11-16T00:25:45.964Z,2.05
2023-11-16T00:30:48.019Z,2.15
2023-11-16T00:35:50.268Z,2.05
2023-11-16T00:40:52.310Z,2.22
2023-11-16T00:45:55.695Z,2.23
2023-11-16T00:50:57.957Z,1.96
2023-11-16T00:55:59.899Z,1.92
2023-11-16T01:01:02.046Z,2.14
2023-11-16T01:06:04.454Z,2.14
2023-11-16T01:11:06.574Z,2.11
2023-11-16T01:16:12.597Z,1.99
2023-11-16T01:21:15.306Z,2.10
2023-11-16T01:26:17.748Z,2.00
2023-11-16T01:31:19.819Z,1.86
2023-11-16T01:36:22.001Z,2.06
2023-11-16T01:41:24.120Z,2.00
2023-11-16T01:46:26.169Z,1.88
2023-11-16T01:51:29.097Z,1.93
2023-11-16T01:56:33.100Z,1.99
2023-11-16T02:01:35.860Z,1.82
2023-11-16T02:06:40.046Z,1.74
2023-11-16T02:11:42.248Z,1.66
2023-11-16T02:16:44.549Z,1.73
2023-11-16T02:21:46.800Z,1.82
2023-11-16T02:26:48.921Z,1.66
2023-11-16T02:31:51.021Z,1.66
2023-11-16T02:36:53.032Z,1.32
2023-11-16T02:41:55.105Z,1.48
2023-11-16T02:46:57.177Z,1.48
2023-11-16T02:51:59.313Z,1.60
2023-11-16T02:57:01.389Z,1.55
2023-11-16T03:02:03.491Z,1.67
2023-11-16T03:07:05.625Z,1.44
2023-11-16T03:12:08.163Z,1.37
2023-11-16T03:17:10.187Z,1.38
2023-11-16T03:22:12.232Z,1.38
2023-11-16T03:27:14.357Z,1.38
2023-11-16T03:32:16.475Z,1.30
2023-11-16T03:37:18.454Z,1.31
2023-11-16T03:42:20.545Z,1.43
2023-11-16T03:47:22.653Z,1.32
2023-11-16T03:52:24.701Z,1.51
2023-11-16T03:57:26.822Z,1.50
2023-11-16T04:02:31.446Z,1.50
2023-11-16T04:07:36.930Z,1.46
2023-11-16T04:12:39.422Z,1.42
2023-11-16T04:17:41.539Z,1.35
2023-11-16T04:22:43.544Z,1.44
2023-11-16T04:27:46.145Z,1.47
2023-11-16T04:32:47.974Z,1.30
2023-11-16T04:37:50.049Z,1.27
2023-11-16T04:42:52.099Z,1.34
2023-11-16T04:47:54.323Z,1.11
2023-11-16T04:52:56.634Z,1.26
2023-11-16T04:57:58.705Z,1.23
2023-11-16T05:03:00.841Z,1.19
2023-11-16T05:08:03.080Z,1.11
2023-11-16T05:13:05.219Z,1.17
2023-11-16T05:18:07.436Z,1.03
2023-11-16T05:23:09.518Z,1.11
2023-11-16T05:28:11.836Z,1.06
2023-11-16T05:33:14.098Z,1.15
2023-11-16T05:38:16.171Z,1.07
2023-11-16T05:43:18.156Z,0.99
2023-11-16T05:48:20.209Z,0.97
2023-11-16T05:53:22.247Z,1.07
2023-11-16T05:58:24.837Z,1.15
2023-11-16T06:03:27.027Z,1.11
2023-11-16T06:08:29.155Z,1.09
2023-11-16T06:13:31.145Z,1.07
2023-11-16T06:18:33.120Z,1.15
2023-11-16T06:23:35.367Z,1.18
2023-11-16T06:28:37.548Z,1.20
2023-11-16T06:33:39.616Z,1.17
2023-11-16T06:38:41.651Z,1.27
2023-11-16T06:43:43.947Z,1.23
2023-11-16T06:48:45.950Z,1.28
2023-11-16T06:53:47.968Z,1.18
2023-11-16T06:58:50.006Z,1.02
2023-11-16T07:03:52.229Z,1.08
2023-11-16T07:08:54.322Z,0.94
2023-11-16T07:13:56.198Z,1.06
2023-11-16T07:18:59.688Z,1.02
2023-11-16T07:24:01.872Z,0.94
2023-11-16T07:29:03.994Z,0.99
2023-11-16T07:34:05.957Z,0.92
2023-11-16T07:39:07.989Z,0.98
2023-11-16T07:44:10.044Z,0.75
2023-11-16T07:49:12.058Z,0.84
2023-11-16T07:54:14.159Z,0.96
2023-11-16T07:59:16.185Z,0.74
2023-11-16T08:04:18.371Z,0.87
2023-11-16T08:09:22.090Z,0.88
2023-11-16T08:14:24.915Z,1.11
2023-11-16T08:19:27.047Z,1.11
2023-11-16T08:24:29.710Z,1.20
2023-11-16T08:29:31.738Z,1.03
2023-11-16T08:34:33.825Z,0.99
2023-11-16T08:39:35.826Z,0.93
2023-11-16T08:44:37.703Z,1.01
2023-11-16T08:49:39.791Z,1.13
2023-11-16T08:54:42.673Z,0.83
2023-11-16T08:59:44.727Z,0.83
2023-11-16T09:04:46.831Z,0.89
2023-11-16T09:09:48.812Z,1.09
2023-11-16T09:14:50.936Z,1.11
2023-11-16T09:19:52.973Z,1.23
2023-11-16T09:24:55.113Z,1.35
2023-11-16T09:29:57.137Z,1.24
2023-11-16T09:35:06.667Z,1.31
2023-11-16T09:40:15.052Z,1.31
2023-11-16T09:45:18.087Z,1.18
2023-11-16T09:50:20.116Z,1.21
2023-11-16T09:55:22.144Z,0.87
2023-11-16T10:00:24.246Z,0.93
2023-11-16T10:05:29.446Z,0.89
2023-11-16T10:10:31.461Z,0.64
2023-11-16T10:15:33.675Z,0.78
2023-11-16T10:20:39.141Z,0.77
2023-11-16T10:25:41.743Z,0.50
2023-11-16T10:30:44.874Z,0.63
2023-11-16T10:35:46.992Z,0.74
2023-11-16T10:40:50.190Z,0.78
2023-11-16T10:45:52.509Z,1.00
2023-11-16T10:50:56.869Z,0.91
2023-11-16T10:55:58.861Z,1.12
2023-11-16T11:01:01.458Z,1.11
2023-11-16T11:06:03.713Z,1.05
2023-11-16T11:11:06.173Z,1.20
2023-11-16T11:16:08.495Z,1.07
2023-11-16T11:21:10.754Z,0.86
2023-11-16T11:26:13.110Z,0.89
2023-11-16T11:31:15.474Z,0.90
2023-11-16T11:36:18.596Z,0.63
2023-11-16T11:41:20.725Z,0.49
2023-11-16T11:46:22.895Z,0.61
2023-11-16T11:51:25.007Z,0.65
2023-11-16T11:56:27.237Z,0.62
2023-11-16T12:01:29.354Z,0.57
2023-11-16T12:06:31.661Z,0.48
2023-11-16T12:11:33.676Z,0.60
2023-11-16T12:16:35.730Z,0.53
2023-11-16T12:21:39.391Z,0.45
2023-11-16T12:26:41.478Z,0.43
2023-11-16T12:31:43.680Z,0.32
2023-11-16T12:36:45.900Z,0.36
2023-11-16T12:41:48.216Z,0.34
2023-11-16T12:46:51.109Z,0.37
2023-11-16T12:51:53.142Z,0.55
2023-11-16T12:56:55.167Z,0.43
2023-11-16T13:01:57.245Z,0.43
2023-11-16T13:06:59.290Z,0.11
2023-11-16T13:12:11.731Z,0.39
2023-11-16T13:17:18.807Z,0.39
2023-11-16T13:22:20.864Z,0.55
2023-11-16T13:27:28.748Z,0.38
2023-11-16T13:32:37.232Z,0.59
2023-11-16T13:37:39.346Z,0.45
2023-11-16T13:42:41.880Z,0.38
2023-11-16T13:47:44.177Z,0.49
2023-11-16T13:52:49.261Z,0.37
2023-11-16T13:57:52.398Z,0.49
2023-11-16T14:02:54.679Z,0.45
2023-11-16T14:07:56.727Z,0.34
2023-11-16T14:12:58.825Z,0.20
2023-11-16T14:18:00.865Z,0.24
2023-11-16T14:23:02.876Z,0.24
2023-11-16T14:28:05.108Z,0.40
2023-11-16T14:33:07.170Z,0.45
2023-11-16T14:38:09.195Z,0.37
2023-11-16T14:43:11.348Z,0.43
2023-11-16T14:48:13.501Z,0.41
2023-11-16T14:53:21.834Z,0.41
2023-11-16T14:58:27.302Z,0.46
2023-11-16T15:03:29.451Z,0.59
2023-11-16T15:08:31.598Z,0.34
2023-11-16T15:13:34.342Z,0.24
2023-11-16T15:18:37.411Z,0.38
2023-11-16T15:23:39.560Z,0.41
2023-11-16T15:28:41.771Z,0.41
2023-11-16T15:33:43.900Z,0.39
2023-11-16T15:38:45.939Z,0.36
2023-11-16T15:43:48.009Z,0.28
2023-11-16T15:48:50.248Z,0.28
2023-11-16T15:53:53.298Z,0.28
2023-11-16T15:58:56.103Z,0.43
2023-11-16T16:03:59.153Z,0.52
2023-11-16T16:09:01.665Z,0.24
2023-11-16T16:14:04.785Z,0.38
2023-11-16T16:19:07.037Z,0.29
2023-11-16T16:24:09.655Z,0.11
2023-11-16T16:29:11.963Z,0.30
2023-11-16T16:34:14.777Z,0.25
2023-11-16T16:39:17.285Z,0.26
2023-11-16T16:44:19.521Z,0.16
2023-11-16T16:49:24.542Z,0.10
2023-11-16T16:54:27.079Z,0.08
2023-11-16T16:59:29.245Z,0.01
2023-11-16T17:04:31.192Z,0.06
2023-11-16T17:09:33.441Z,0.20
2023-11-16T17:14:36.701Z,0.31
2023-11-16T17:19:38.829Z,0.22
2023-11-16T17:24:41.038Z,0.16
2023-11-16T17:29:45.221Z,0.12
2023-11-16T17:34:48.230Z,0.15
2023-11-16T17:39:50.665Z,0.07
2023-11-16T17:44:52.438Z,-0.02
2023-11-16T17:49:54.561Z,0.04
2023-11-16T17:54:56.833Z,-0.02
2023-11-16T17:59:58.892Z,-0.43
2023-11-16T18:05:01.074Z,-0.62
2023-11-16T18:10:04.127Z,-0.70
2023-11-16T18:15:06.724Z,-0.80
2023-11-16T18:20:08.833Z,-1.10
2023-11-16T18:25:10.902Z,-1.34
2023-11-16T18:30:13.582Z,-1.41
2023-11-16T18:35:15.737Z,-1.34
2023-11-16T18:40:18.011Z,-1.25
2023-11-16T18:45:21.482Z,-1.10
2023-11-16T18:50:23.772Z,-1.24
2023-11-16T18:55:26.105Z,-1.33
2023-11-16T19:00:28.096Z,-1.38
2023-11-16T19:05:30.285Z,-1.39
2023-11-16T19:10:32.341Z,-1.60
2023-11-16T19:15:34.481Z,-1.68
2023-11-16T19:20:36.670Z,-1.89
2023-11-16T19:25:38.967Z,-1.88
2023-11-16T19:30:41.181Z,-1.91
2023-11-16T19:35:43.460Z,-1.97
2023-11-16T19:40:45.610Z,-1.81
2023-11-16T19:45:47.579Z,-1.78
2023-11-16T19:50:49.953Z,-1.92
2023-11-16T19:55:52.210Z,-1.95
2023-11-16T20:00:54.515Z,-2.13
2023-11-16T20:05:56.781Z,-2.01
2023-11-16T20:10:58.941Z,-2.07
2023-11-16T20:16:01.552Z,-1.87
2023-11-16T20:21:03.936Z,-1.91
2023-11-16T20:26:06.350Z,-2.02
2023-11-16T20:31:08.440Z,-1.89
2023-11-16T20:36:10.824Z,-1.61
2023-11-16T20:41:12.984Z,-1.59
2023-11-16T20:46:15.282Z,-1.54
2023-11-16T20:51:17.626Z,-1.62
2023-11-16T20:56:19.722Z,-1.49
2023-11-16T21:01:21.913Z,-1.55
2023-11-16T21:06:24.327Z,-1.67
2023-11-16T21:11:26.454Z,-1.71
2023-11-16T21:16:28.625Z,-1.85
2023-11-16T21:21:30.818Z,-2.00
2023-11-16T21:26:35.923Z,-1.78
2023-11-16T21:31:38.284Z,-1.92
2023-11-16T21:36:43.409Z,-1.93
2023-11-16T21:41:45.505Z,-2.05
2023-11-16T21:46:47.712Z,-2.00
2023-11-16T21:51:49.758Z,-2.26
2023-11-16T21:56:52.722Z,-2.14
2023-11-16T22:01:54.866Z,-2.04
2023-11-16T22:06:57.102Z,-2.15
2023-11-16T22:11:59.423Z,-2.36
2023-11-16T22:17:01.505Z,-2.30
2023-11-16T22:22:03.717Z,-2.29
2023-11-16T22:27:05.864Z,-2.43
2023-11-16T22:32:08.040Z,-2.28
2023-11-16T22:37:10.189Z,-2.25
2023-11-16T22:42:12.277Z,-2.17
2023-11-16T22:47:14.454Z,-2.32
2023-11-16T22:52:16.656Z,-2.26
2023-11-16T22:57:18.701Z,-2.34
2023-11-16T23:02:20.832Z,-2.21
2023-11-16T23:07:22.919Z,-2.20
2023-11-16T23:12:25.138Z,-2.17
2023-11-16T23:17:27.920Z,-2.06
2023-11-16T23:22:29.819Z,-2.34
2023-11-16T23:27:31.953Z,-2.34
2023-11-16T23:32:33.986Z,-2.28
2023-11-16T23:37:36.060Z,-2.13
2023-11-16T23:42:37.995Z,-2.19
2023-11-16T23:47:40.328Z,-2.16
2023-11-16T23:52:42.308Z,-2.39
2023-11-16T23:57:44.447Z,-2.40
